Thomaston, Connecticut
Current Conditions -  °F | °C
As of 12:55 AM on Wednesday 22 Oct 2014 (Local Time) from KOXC Reporting Station
Overcast Overcast  
Wind Chill: 54°   Ceiling: 800
Heat Index: 54°   Visibility: 10mi
Dew Point: 48°   Wind: 13mph
Humidity: 82%   Direction: 40°NE
Pressure: 29.93"   Gusts: 16mph
Location:  41.67°N, 73.07°W
Report Text: KOXC 220455Z 04011G14KT 10SM OVC008 12/09 A2993 RMK AO1
Loading
Personal Weather Stations






























Interactive Weather Map
Tropical Storm Tracking
New forecast layout! Learn more

10-Day Weather Forecast

Advertisements
Track Severe Weather on mobile